Terminal Aerodrome Forecast
Issued by NWS Shreveport, LA

Home | Current Version | Previous Version | Text Only | Print | Product List | Glossary On
Versions: 1 2 3 4 5 6 7 8 9 10 11 12 13 14 15 16 17 18 19 20 21 22
000
FTUS44 KSHV 300534
TAFSHV
TAF
KSHV 300534Z 3006/3106 VRB03KT P6SM FEW040 SCT250
     FM301000 VRB03KT 5SM BR SCT040 SCT250
     FM301200 VRB03KT 4SM BR SCT002 SCT250
     FM301400 VRB03KT P6SM BKN004
     FM301600 07005KT P6SM BKN020
     FM301800 09006KT P6SM BKN035
     FM302000 10007KT P6SM SCT040 SCT250=

USA.gov is the U.S. government's official web portal to all federal, state and local government web resources and services.